Souderton, PA (18964)

4:40 AM EDT on October 23, 2014 (GMT -0400)
Elroy | Change Station
CLOSE
Current Station
Personal Weather Station
Location: Souderton, PA
Elevation: 358 ft
Nearby Weather Stations

Elev 358 ft 40.28 °N, 75.33 °W | Updated 10 minutes ago

Overcast
Overcast
51.1 °F
Feels Like 51.1 °F
N
1.0
Wind Variable Wind from NNW
Gusts 7.0 mph

Today
High -- | Low -- °F
--% Chance of Precip.
Yesterday
High -- | Low -- °F
Precip. -- in
7:20 AM 6:09 PM
Waning Crescent, 0% visible
Pressure 29.78 in
Visibility 10.0 miles
Clouds Few 2200 ft
Overcast 3000 ft
Dew Point 47 °F
Humidity 85%
Rainfall 0.00 in
Snow Depth Not available.
UV 0 out of 12
Pollen .30 out of 12
Air Quality Not available.
Flu Activity Sporadic
METAR KUKT 230835Z AUTO 35008G16KT 10SM FEW022 OVC030 10/07 A2978 RMK AO1

More Conditions Fewer Conditions

Pressure 29.78 in
Visibility 10.0 miles
Clouds Few 2200 ft
Overcast 3000 ft
Dew Point 47 °F
Humidity 85%
Rainfall 0.00 in
Snow Depth Not available.
UV 0 out of 12
Pollen .30 out of 12
Air Quality Not available.
Flu Activity Sporadic
METAR KUKT 230835Z AUTO 35008G16KT 10SM FEW022 OVC030 10/07 A2978 RMK AO1

More Conditions Fewer Conditions

10-Day Weather Forecast

Almanac

Astronomy

Oct. 23, 2014 Rise Set
Actual Time 7:20 AM EDT 6:09 PM EDT
Civil Twilight 6:52 AM EDT 6:37 PM EDT
Nautical Twilight 6:21 AM EDT 7:09 PM EDT
Astronomical Twilight 5:49 AM EDT 7:40 PM EDT
Moon 6:57 AM EDT 6:10 PM EDT
Length of Visible Light 11h 44m
Length of Day
10h 49m
Tomorrow will be 2m 29s shorter.
Waning Crescent, 0% of the Moon is Illuminated
Today
Waning Crescent
Oct 23
New
Oct 30
First Quarter
Nov 6
Full
Nov 14
Last Quarter

Today's Extremes

State Highs State Lows

Community

WunderPhotos

Upload Photos

1,764,197 photos uploaded!

Nearby

Snow Depth

Station Depth Elevation
No new snow has been reported.

Earthquake Activity

City Distance Mag. Time & Date
No recent earthquake activity has been reported nearby.
Minimum magnitude displayed is 2.5.

Coastal Water Temperatures

Place Temperature
No Stations Reporting

Nearby Weather Stations